Time;durP1;ratioP1;P1;durP2;ratioP2;P2;SDS_P1;SDS_P2;PMS_P1;PMS_P2;Temp;Humidity;BMP_temperature;BMP_pressure;BME280_temperature;BME280_humidity;BME280_pressure;Samples;Min_cycle;Max_cycle;Signal;HPM_P1;HPM_P2
2023/11/04 00:01:37;;;;;;;12.60;12.20;;;7.00;99.90;;;;;;5021373;28;21160;-70
2023/11/04 00:04:04;;;;;;;11.87;11.57;;;7.10;99.90;;;;;;5016086;28;20483;-71
2023/11/04 00:06:31;;;;;;;12.27;11.97;;;7.20;99.90;;;;;;5013612;28;20470;-72
2023/11/04 00:08:57;;;;;;;11.90;11.60;;;7.20;99.90;;;;;;5035247;27;20468;-73
2023/11/04 00:11:26;;;;;;;11.87;11.57;;;7.30;99.90;;;;;;5066004;27;20465;-74
2023/11/04 00:13:53;;;;;;;12.27;11.97;;;7.30;99.90;;;;;;5016096;28;20491;-74
2023/11/04 00:16:21;;;;;;;11.87;11.57;;;7.40;99.90;;;;;;5023601;28;20731;-71
2023/11/04 00:18:48;;;;;;;11.97;11.67;;;7.50;99.90;;;;;;5016797;28;20457;-71
2023/11/04 00:21:15;;;;;;;11.70;11.40;;;7.60;99.90;;;;;;5017617;28;20564;-71
2023/11/04 00:23:42;;;;;;;11.60;11.30;;;7.70;99.90;;;;;;5023633;28;20472;-71
2023/11/04 00:26:09;;;;;;;11.70;11.40;;;7.90;99.90;;;;;;5027194;28;20453;-71
2023/11/04 00:28:36;;;;;;;12.00;11.70;;;8.00;99.90;;;;;;5025240;28;20473;-72
2023/11/04 00:31:03;;;;;;;11.93;11.63;;;8.00;99.90;;;;;;5019921;28;20457;-71
2023/11/04 00:33:32;;;;;;;12.07;11.77;;;8.00;99.90;;;;;;5026893;28;20487;-72
2023/11/04 00:35:59;;;;;;;12.20;11.90;;;7.90;99.90;;;;;;5012922;28;20547;-73
2023/11/04 00:38:25;;;;;;;12.30;12.00;;;7.90;99.90;;;;;;5025615;28;20466;-72
2023/11/04 00:40:53;;;;;;;12.37;12.07;;;7.70;99.90;;;;;;5026347;28;20493;-72
2023/11/04 00:43:20;;;;;;;12.57;12.23;;;7.60;99.90;;;;;;5015195;28;20852;-73
2023/11/04 00:45:47;;;;;;;13.00;12.60;;;7.50;99.90;;;;;;5024086;28;20847;-70
2023/11/04 00:48:14;;;;;;;12.50;12.20;;;7.50;99.90;;;;;;5024987;28;20472;-70
2023/11/04 00:50:42;;;;;;;12.70;12.30;;;7.30;99.90;;;;;;5016434;28;20819;-71
2023/11/04 00:53:09;;;;;;;12.20;11.90;;;7.30;99.90;;;;;;5015868;28;20465;-70
2023/11/04 00:55:36;;;;;;;12.47;12.17;;;7.20;99.90;;;;;;5022977;28;20468;-74
2023/11/04 00:58:02;;;;;;;12.33;12.03;;;7.20;99.90;;;;;;5020858;28;20472;-71
2023/11/04 01:00:29;;;;;;;12.80;12.40;;;7.20;99.90;;;;;;5023113;28;20520;-70
2023/11/04 01:02:56;;;;;;;12.80;12.40;;;7.10;99.90;;;;;;5017741;28;20466;-71
2023/11/04 01:05:25;;;;;;;13.20;12.80;;;7.10;99.90;;;;;;5019165;28;20488;-71
2023/11/04 01:07:53;;;;;;;12.50;12.13;;;7.10;99.90;;;;;;5026374;28;20501;-72
2023/11/04 01:10:20;;;;;;;12.40;12.10;;;7.10;99.90;;;;;;5023412;28;20469;-70
2023/11/04 01:12:47;;;;;;;12.37;12.07;;;7.20;99.90;;;;;;5023196;28;20825;-70
2023/11/04 01:15:14;;;;;;;12.30;12.00;;;7.30;99.90;;;;;;5018195;28;20474;-71
2023/11/04 01:17:41;;;;;;;12.23;11.93;;;7.40;99.90;;;;;;5016857;28;20466;-70
2023/11/04 01:20:09;;;;;;;12.43;12.13;;;7.40;99.90;;;;;;5017659;28;20477;-71
2023/11/04 01:22:37;;;;;;;12.33;12.03;;;7.50;99.90;;;;;;5016800;28;20461;-71
2023/11/04 01:25:06;;;;;;;12.10;11.80;;;7.60;99.90;;;;;;5022713;28;20485;-71
2023/11/04 01:27:32;;;;;;;12.40;12.10;;;7.60;99.90;;;;;;5019734;28;20548;-71
2023/11/04 01:30:00;;;;;;;12.47;12.17;;;7.70;99.90;;;;;;5025853;28;20469;-73
2023/11/04 01:32:27;;;;;;;12.30;12.00;;;7.80;99.90;;;;;;5020873;28;20465;-70
2023/11/04 01:34:54;;;;;;;12.27;11.97;;;7.80;99.90;;;;;;5009843;28;20459;-71
2023/11/04 01:37:25;;;;;;;12.27;11.97;;;7.90;99.90;;;;;;5015389;28;21048;-74
2023/11/04 01:39:51;;;;;;;13.00;12.60;;;7.90;99.90;;;;;;5024334;28;20970;-71
2023/11/04 01:42:20;;;;;;;12.27;11.97;;;8.00;99.90;;;;;;5025576;28;20465;-74
2023/11/04 01:44:46;;;;;;;12.73;12.33;;;8.00;99.90;;;;;;5025368;28;20501;-71
2023/11/04 01:47:14;;;;;;;12.40;12.10;;;8.00;99.90;;;;;;5018172;28;20476;-74
2023/11/04 01:49:40;;;;;;;12.20;11.90;;;8.00;99.90;;;;;;5012066;28;20498;-71
2023/11/04 01:52:07;;;;;;;12.37;12.07;;;8.10;99.90;;;;;;5012691;28;20473;-70
2023/11/04 01:54:36;;;;;;;12.63;12.30;;;8.10;99.90;;;;;;5021944;28;20458;-70
2023/11/04 01:57:03;;;;;;;12.47;12.17;;;8.10;99.90;;;;;;5019938;28;20559;-73
2023/11/04 01:59:32;;;;;;;11.97;11.67;;;8.10;99.90;;;;;;5020442;28;20496;-72
2023/11/04 02:02:00;;;;;;;12.07;11.77;;;8.10;99.90;;;;;;5025065;28;20453;-71
2023/11/04 02:04:29;;;;;;;12.23;11.93;;;8.10;99.90;;;;;;5025089;28;20478;-71
2023/11/04 02:06:56;;;;;;;12.40;12.10;;;8.10;99.90;;;;;;5016449;28;20543;-75
2023/11/04 02:09:22;;;;;;;12.13;11.83;;;8.10;99.90;;;;;;5017771;28;20470;-73
2023/11/04 02:11:49;;;;;;;11.87;11.57;;;8.20;99.90;;;;;;5015359;28;20681;-70
2023/11/04 02:14:16;;;;;;;12.10;11.80;;;8.20;99.90;;;;;;5025275;28;20464;-70
2023/11/04 02:16:46;;;;;;;12.30;12.00;;;8.30;99.90;;;;;;5024838;28;20465;-71
2023/11/04 02:19:12;;;;;;;12.40;12.10;;;8.20;99.90;;;;;;5019906;28;20519;-70
2023/11/04 02:21:41;;;;;;;12.40;12.10;;;8.30;99.90;;;;;;5014788;28;20493;-71
2023/11/04 02:24:09;;;;;;;12.00;11.70;;;8.40;99.90;;;;;;5018095;28;20470;-72
2023/11/04 02:26:36;;;;;;;12.13;11.83;;;8.40;99.90;;;;;;5023567;28;20512;-71
2023/11/04 02:29:02;;;;;;;11.93;11.63;;;8.40;99.90;;;;;;5021769;28;20474;-71
2023/11/04 02:31:29;;;;;;;12.20;11.90;;;8.40;99.90;;;;;;5018456;28;20783;-71
2023/11/04 02:33:56;;;;;;;11.70;11.40;;;8.50;99.90;;;;;;5021501;28;20473;-75
2023/11/04 02:36:23;;;;;;;12.07;11.77;;;8.50;99.90;;;;;;5020655;28;20829;-71
2023/11/04 02:38:51;;;;;;;12.43;12.13;;;8.50;99.90;;;;;;5023087;28;20956;-73
2023/11/04 02:41:18;;;;;;;12.20;11.90;;;8.60;99.90;;;;;;5019842;28;20497;-70
2023/11/04 02:43:45;;;;;;;12.40;12.10;;;8.70;99.90;;;;;;5018909;28;20489;-71
2023/11/04 02:46:12;;;;;;;12.10;11.80;;;8.70;99.90;;;;;;5026651;28;20482;-73
2023/11/04 02:48:39;;;;;;;12.77;12.37;;;8.80;99.90;;;;;;5015959;28;20462;-71
2023/11/04 02:51:06;;;;;;;13.30;12.90;;;8.90;99.90;;;;;;5027517;28;20563;-73
2023/11/04 02:53:34;;;;;;;13.07;12.67;;;8.80;99.90;;;;;;5024335;28;20470;-72
2023/11/04 02:56:02;;;;;;;11.70;11.40;;;8.90;99.90;;;;;;5021952;28;20532;-70
2023/11/04 02:58:28;;;;;;;12.90;12.50;;;9.00;99.90;;;;;;5017675;28;20458;-71
2023/11/04 03:00:55;;;;;;;12.70;12.30;;;9.00;99.90;;;;;;5019604;28;20489;-71
2023/11/04 03:03:22;;;;;;;11.60;11.30;;;9.10;99.90;;;;;;5022358;28;20463;-70
2023/11/04 03:05:49;;;;;;;12.40;12.10;;;9.20;99.90;;;;;;5024953;28;20449;-72
2023/11/04 03:08:16;;;;;;;11.93;11.63;;;9.20;99.90;;;;;;5009692;28;20493;-70
2023/11/04 03:10:43;;;;;;;11.70;11.40;;;9.30;99.90;;;;;;5072465;27;20474;-74
2023/11/04 03:13:11;;;;;;;12.43;12.13;;;9.30;99.90;;;;;;5022487;28;20470;-71
2023/11/04 03:15:38;;;;;;;11.70;11.40;;;9.30;99.90;;;;;;5027789;28;20561;-74
2023/11/04 03:18:07;;;;;;;11.43;11.13;;;9.50;99.90;;;;;;5018658;28;20472;-71
2023/11/04 03:20:34;;;;;;;11.83;11.53;;;9.50;99.90;;;;;;5019454;28;20577;-71
2023/11/04 03:23:01;;;;;;;11.10;10.80;;;9.50;99.90;;;;;;5027588;28;20531;-71
2023/11/04 03:25:27;;;;;;;11.40;11.10;;;9.50;99.90;;;;;;5019313;28;20650;-73
2023/11/04 03:27:54;;;;;;;11.20;10.90;;;9.60;99.90;;;;;;5016347;28;20484;-74
2023/11/04 03:30:22;;;;;;;11.43;11.13;;;9.60;99.90;;;;;;5026863;28;20476;-75
2023/11/04 03:32:49;;;;;;;11.55;11.25;;;9.70;99.90;;;;;;5016719;28;20605;-72
2023/11/04 03:35:16;;;;;;;11.73;11.43;;;9.70;99.90;;;;;;5026863;28;20692;-71
2023/11/04 03:37:43;;;;;;;11.53;11.23;;;9.80;99.90;;;;;;5024280;28;20961;-71
2023/11/04 03:40:12;;;;;;;11.47;11.17;;;9.80;99.90;;;;;;5020188;28;20517;-71
2023/11/04 03:42:39;;;;;;;11.10;10.80;;;9.80;99.90;;;;;;5025472;28;20717;-73
2023/11/04 03:45:07;;;;;;;10.80;10.60;;;9.80;99.90;;;;;;5027374;28;20493;-71
2023/11/04 03:47:36;;;;;;;10.70;10.50;;;9.70;99.90;;;;;;5016360;28;20477;-71
2023/11/04 03:50:04;;;;;;;11.40;11.10;;;9.70;99.90;;;;;;5015483;28;20474;-71
2023/11/04 03:52:30;;;;;;;11.03;10.73;;;9.70;99.90;;;;;;5026810;28;20453;-71
2023/11/04 03:54:57;;;;;;;11.30;11.00;;;9.60;99.90;;;;;;5020685;28;20474;-72
2023/11/04 03:57:24;;;;;;;10.70;10.50;;;9.70;99.90;;;;;;5021829;28;20465;-71
2023/11/04 03:59:52;;;;;;;10.70;10.50;;;9.60;99.90;;;;;;5025572;28;20856;-73
2023/11/04 04:02:19;;;;;;;11.20;10.90;;;9.60;99.90;;;;;;5012131;28;20493;-72
2023/11/04 04:04:47;;;;;;;10.73;10.53;;;9.60;99.90;;;;;;5022738;28;20872;-71
2023/11/04 04:07:14;;;;;;;11.20;10.90;;;9.60;99.90;;;;;;5026750;28;20457;-71
2023/11/04 04:09:41;;;;;;;10.70;10.50;;;9.60;99.90;;;;;;5027071;28;20805;-71
2023/11/04 04:12:08;;;;;;;10.67;10.47;;;9.60;99.90;;;;;;5021260;28;20465;-71
2023/11/04 04:14:35;;;;;;;11.10;10.80;;;9.60;99.90;;;;;;5025183;28;20465;-72
2023/11/04 04:17:02;;;;;;;10.73;10.53;;;9.60;99.90;;;;;;5017367;28;20557;-71
2023/11/04 04:19:29;;;;;;;10.53;10.33;;;9.60;99.90;;;;;;5016144;28;20493;-72
2023/11/04 04:21:56;;;;;;;10.80;10.60;;;9.60;99.90;;;;;;5014737;28;20497;-71
2023/11/04 04:24:23;;;;;;;10.90;10.70;;;9.60;99.90;;;;;;5027092;28;20477;-75
2023/11/04 04:26:50;;;;;;;11.00;10.70;;;9.60;99.90;;;;;;5026580;28;20835;-73
2023/11/04 04:29:17;;;;;;;11.20;10.90;;;9.60;99.90;;;;;;5023246;28;20488;-71
2023/11/04 04:31:44;;;;;;;10.40;10.20;;;9.70;99.90;;;;;;5013144;28;20462;-75
2023/11/04 04:34:10;;;;;;;10.67;10.47;;;9.60;99.90;;;;;;5014412;28;20457;-74
2023/11/04 04:36:38;;;;;;;11.30;11.00;;;9.70;99.90;;;;;;5022265;28;20488;-71
2023/11/04 04:39:07;;;;;;;11.60;11.30;;;9.70;99.90;;;;;;5026251;28;20469;-71
2023/11/04 04:41:34;;;;;;;11.97;11.67;;;9.60;99.90;;;;;;5026504;28;20538;-71
2023/11/04 04:44:02;;;;;;;11.37;11.07;;;9.50;99.90;;;;;;5021038;28;20485;-71
2023/11/04 04:46:29;;;;;;;11.63;11.33;;;9.50;99.90;;;;;;5024138;28;20481;-71
2023/11/04 04:48:56;;;;;;;11.93;11.63;;;9.40;99.90;;;;;;5013092;28;20562;-74
2023/11/04 04:51:23;;;;;;;11.27;10.97;;;9.30;99.90;;;;;;5026307;28;20491;-71
2023/11/04 04:53:50;;;;;;;12.40;12.10;;;9.30;99.90;;;;;;5022204;28;20832;-71
2023/11/04 04:56:18;;;;;;;12.00;11.70;;;9.30;99.90;;;;;;5019934;28;20465;-74
2023/11/04 04:58:46;;;;;;;11.50;11.20;;;9.30;99.90;;;;;;5013279;28;20470;-75
2023/11/04 05:01:18;;;;;;;12.30;12.00;;;9.30;99.90;;;;;;5023600;28;20496;-71
2023/11/04 05:03:45;;;;;;;11.90;11.60;;;9.20;99.90;;;;;;5019590;28;20556;-74
2023/11/04 05:06:12;;;;;;;11.50;11.20;;;9.10;99.90;;;;;;5022196;28;20461;-73
2023/11/04 05:08:39;;;;;;;12.03;11.73;;;9.00;99.90;;;;;;5017008;27;20514;-73
2023/11/04 05:11:09;;;;;;;11.87;11.57;;;8.90;99.90;;;;;;5021934;28;20849;-72
2023/11/04 05:13:37;;;;;;;12.20;11.90;;;8.80;99.90;;;;;;5018562;28;20887;-74
2023/11/04 05:16:05;;;;;;;11.90;11.60;;;8.70;99.90;;;;;;5013420;28;20469;-72
2023/11/04 05:18:32;;;;;;;11.70;11.40;;;8.60;99.90;;;;;;5014706;28;20713;-72
2023/11/04 05:21:02;;;;;;;11.93;11.63;;;8.50;99.90;;;;;;5012654;28;20818;-74
2023/11/04 05:23:29;;;;;;;12.10;11.80;;;8.40;99.90;;;;;;5025026;28;20465;-72
2023/11/04 05:25:57;;;;;;;11.63;11.33;;;8.30;99.90;;;;;;5012622;28;20848;-71
2023/11/04 05:28:24;;;;;;;12.47;12.07;;;8.20;99.90;;;;;;5025363;28;20494;-71
2023/11/04 05:30:53;;;;;;;11.70;11.40;;;8.10;99.90;;;;;;5020632;28;20457;-71
2023/11/04 05:33:21;;;;;;;11.30;11.00;;;8.10;99.90;;;;;;5014171;28;20511;-72
2023/11/04 05:35:48;;;;;;;11.30;11.00;;;8.00;99.90;;;;;;5019100;28;20580;-74
2023/11/04 05:38:15;;;;;;;11.10;10.80;;;8.10;99.90;;;;;;5020638;28;20461;-74
2023/11/04 05:40:41;;;;;;;10.90;10.60;;;8.20;99.90;;;;;;5016005;28;20508;-71
2023/11/04 05:43:08;;;;;;;11.10;10.80;;;8.20;99.90;;;;;;5024517;28;20485;-75
2023/11/04 05:45:35;;;;;;;10.60;10.40;;;8.30;99.90;;;;;;5019582;28;20991;-72
2023/11/04 05:48:03;;;;;;;10.70;10.50;;;8.30;99.90;;;;;;5018169;28;20472;-71
2023/11/04 05:50:30;;;;;;;10.60;10.40;;;8.30;99.90;;;;;;5023724;28;20492;-71
2023/11/04 05:52:57;;;;;;;10.40;10.20;;;8.30;99.90;;;;;;5024700;28;20468;-71
2023/11/04 05:55:24;;;;;;;10.53;10.33;;;8.20;99.90;;;;;;5012370;28;20481;-73
2023/11/04 05:57:50;;;;;;;10.43;10.23;;;8.10;99.90;;;;;;5006946;28;20541;-71
2023/11/04 06:00:18;;;;;;;10.37;10.17;;;8.00;99.90;;;;;;5022668;28;20457;-72
2023/11/04 06:02:45;;;;;;;10.27;10.07;;;7.90;99.90;;;;;;5017285;28;20524;-74
2023/11/04 06:05:13;;;;;;;10.10;9.90;;;8.00;99.90;;;;;;5021095;28;20548;-75
2023/11/04 06:07:41;;;;;;;10.27;10.07;;;8.00;99.90;;;;;;5028151;28;20544;-75
2023/11/04 06:10:09;;;;;;;9.80;9.60;;;7.90;99.90;;;;;;5058221;27;20472;-73
2023/11/04 06:12:35;;;;;;;9.57;9.37;;;7.90;99.90;;;;;;5021070;28;20540;-71
2023/11/04 06:15:03;;;;;;;9.90;9.70;;;7.80;99.90;;;;;;5027868;28;20504;-73
2023/11/04 06:17:30;;;;;;;9.60;9.40;;;7.80;99.90;;;;;;5018245;28;20467;-71
2023/11/04 06:19:58;;;;;;;9.80;9.60;;;7.70;99.90;;;;;;5024728;27;20465;-71
2023/11/04 06:22:26;;;;;;;9.37;9.17;;;7.70;99.90;;;;;;5023463;28;20497;-71
2023/11/04 06:24:53;;;;;;;8.97;8.77;;;7.70;99.90;;;;;;5027263;28;20496;-71
2023/11/04 06:27:20;;;;;;;9.80;9.60;;;7.70;99.90;;;;;;5025308;28;20563;-71
2023/11/04 06:29:47;;;;;;;9.90;9.70;;;7.70;99.90;;;;;;5017918;28;20564;-72
2023/11/04 06:32:14;;;;;;;9.77;9.57;;;7.70;99.90;;;;;;5014357;28;20466;-73
2023/11/04 06:34:41;;;;;;;8.80;8.70;;;7.70;99.90;;;;;;5017942;28;20454;-73
2023/11/04 06:37:08;;;;;;;9.00;8.80;;;7.60;99.90;;;;;;5019644;28;20461;-73
2023/11/04 06:39:37;;;;;;;8.53;8.43;;;7.60;99.90;;;;;;5011494;28;20466;-71
2023/11/04 06:42:05;;;;;;;8.40;8.30;;;7.50;99.90;;;;;;5021946;28;20536;-71
2023/11/04 06:44:35;;;;;;;8.60;8.50;;;7.50;99.90;;;;;;5027286;28;20497;-71
2023/11/04 06:47:02;;;;;;;8.17;8.07;;;7.60;99.90;;;;;;5012184;28;20493;-71
2023/11/04 06:49:29;;;;;;;8.03;7.93;;;7.70;99.90;;;;;;5010484;28;20900;-73
2023/11/04 06:51:56;;;;;;;8.10;8.00;;;7.80;99.90;;;;;;5019031;27;20468;-71
2023/11/04 06:54:23;;;;;;;7.70;7.60;;;7.90;99.90;;;;;;5018654;28;20473;-71
2023/11/04 06:56:54;;;;;;;8.10;8.00;;;7.90;99.90;;;;;;5015085;28;20523;-71
2023/11/04 06:59:21;;;;;;;8.57;8.47;;;7.90;99.90;;;;;;5018073;28;20849;-71
2023/11/04 07:01:49;;;;;;;8.70;8.60;;;7.80;99.90;;;;;;5027255;27;20673;-71
2023/11/04 07:04:16;;;;;;;8.27;8.17;;;7.90;99.90;;;;;;5014982;28;20564;-75
2023/11/04 07:06:43;;;;;;;8.60;8.50;;;7.90;99.90;;;;;;5020624;28;20474;-71
2023/11/04 07:09:10;;;;;;;8.53;8.43;;;7.90;99.90;;;;;;5029221;27;20465;-71
2023/11/04 07:11:37;;;;;;;9.07;8.87;;;8.00;99.90;;;;;;5045115;27;20974;-71
2023/11/04 07:14:06;;;;;;;8.30;8.20;;;8.10;99.90;;;;;;5047634;27;20472;-73
2023/11/04 07:16:33;;;;;;;8.43;8.33;;;8.20;99.90;;;;;;5058539;27;20458;-71
2023/11/04 07:19:00;;;;;;;9.23;9.03;;;8.30;99.90;;;;;;5031471;27;20475;-73
2023/11/04 07:21:27;;;;;;;8.80;8.70;;;8.40;99.90;;;;;;5056292;27;21026;-71
2023/11/04 07:23:55;;;;;;;9.37;9.17;;;8.40;99.90;;;;;;5026746;28;20454;-71
2023/11/04 07:26:22;;;;;;;9.37;9.17;;;8.50;99.90;;;;;;5022614;28;20508;-71
2023/11/04 07:28:50;;;;;;;9.40;9.20;;;8.70;99.90;;;;;;5016468;27;20467;-72
2023/11/04 07:31:19;;;;;;;9.90;9.70;;;8.70;99.90;;;;;;5013195;28;20990;-73
2023/11/04 07:33:46;;;;;;;10.07;9.87;;;8.80;99.90;;;;;;5018215;28;20546;-71
2023/11/04 07:36:13;;;;;;;9.83;9.63;;;8.90;99.90;;;;;;5026638;28;20465;-71
2023/11/04 07:38:40;;;;;;;10.23;10.03;;;9.10;99.90;;;;;;5021586;28;20474;-72
2023/11/04 07:41:07;;;;;;;10.20;10.00;;;9.10;99.90;;;;;;5023860;28;20487;-72
2023/11/04 07:43:34;;;;;;;10.03;9.83;;;9.20;99.90;;;;;;5007574;28;20466;-74
2023/11/04 07:46:01;;;;;;;10.60;10.40;;;9.30;99.90;;;;;;5010632;28;20578;-73
2023/11/04 07:48:29;;;;;;;11.40;11.10;;;9.30;99.90;;;;;;5021453;28;20462;-72
2023/11/04 07:50:57;;;;;;;11.13;10.83;;;9.40;99.90;;;;;;5024867;28;20472;-74
2023/11/04 07:53:24;;;;;;;11.20;10.90;;;9.40;99.90;;;;;;5019346;28;20584;-71
2023/11/04 07:55:51;;;;;;;10.93;10.63;;;9.50;99.90;;;;;;5027093;28;20480;-73
2023/11/04 07:58:18;;;;;;;11.10;10.80;;;9.60;99.90;;;;;;5018396;28;20560;-72
2023/11/04 08:00:45;;;;;;;11.37;11.07;;;9.60;99.90;;;;;;5018423;28;20489;-72
2023/11/04 08:03:12;;;;;;;11.30;11.00;;;9.70;99.90;;;;;;5009772;28;20502;-72
2023/11/04 08:05:41;;;;;;;11.80;11.50;;;9.70;99.90;;;;;;5025430;28;20461;-73
2023/11/04 08:08:09;;;;;;;11.40;11.10;;;9.70;99.90;;;;;;5024752;28;20466;-72
2023/11/04 08:10:37;;;;;;;11.67;11.37;;;9.80;99.90;;;;;;5023075;27;20461;-71
2023/11/04 08:13:04;;;;;;;11.30;11.00;;;9.80;99.90;;;;;;5022095;28;20661;-72
2023/11/04 08:15:31;;;;;;;12.50;12.20;;;9.80;99.90;;;;;;5009376;28;20965;-72
2023/11/04 08:17:59;;;;;;;12.30;12.00;;;9.80;99.90;;;;;;5007575;28;20559;-72
2023/11/04 08:20:26;;;;;;;12.40;12.10;;;9.90;99.90;;;;;;5014810;28;20550;-71
2023/11/04 08:22:53;;;;;;;11.80;11.50;;;9.90;99.90;;;;;;5018831;28;20494;-72
2023/11/04 08:25:20;;;;;;;11.97;11.67;;;10.00;99.90;;;;;;5019432;28;21098;-72
2023/11/04 08:27:47;;;;;;;11.70;11.40;;;10.10;99.90;;;;;;5020438;28;20465;-72
2023/11/04 08:30:15;;;;;;;11.87;11.57;;;10.40;99.90;;;;;;5024384;28;20925;-72
2023/11/04 08:32:42;;;;;;;11.80;11.50;;;10.60;99.90;;;;;;5025823;28;20446;-75
2023/11/04 08:35:09;;;;;;;12.30;12.00;;;10.60;99.90;;;;;;5007439;28;20471;-73
2023/11/04 08:37:36;;;;;;;11.77;11.47;;;10.70;99.90;;;;;;5021007;28;20837;-72
2023/11/04 08:40:05;;;;;;;11.70;11.40;;;10.90;99.90;;;;;;5019098;28;20899;-72
2023/11/04 08:42:33;;;;;;;12.60;12.30;;;11.00;99.90;;;;;;5023831;28;20514;-72
2023/11/04 08:45:00;;;;;;;12.27;11.97;;;11.00;99.90;;;;;;5012778;28;20585;-72
2023/11/04 08:47:26;;;;;;;12.33;12.03;;;11.00;99.90;;;;;;5017104;28;20485;-74
2023/11/04 08:49:53;;;;;;;12.10;11.80;;;11.00;99.90;;;;;;5021156;28;20954;-71
2023/11/04 08:52:20;;;;;;;13.00;12.60;;;10.90;99.90;;;;;;5016337;28;20474;-72
2023/11/04 08:54:46;;;;;;;12.93;12.53;;;10.90;99.90;;;;;;5016053;28;20454;-72
2023/11/04 08:57:15;;;;;;;12.60;12.30;;;10.80;99.90;;;;;;5019145;28;20472;-75
2023/11/04 08:59:41;;;;;;;12.60;12.30;;;10.90;99.90;;;;;;5010780;28;20467;-70
2023/11/04 09:02:08;;;;;;;12.10;11.80;;;11.00;99.90;;;;;;5019872;28;20481;-71
2023/11/04 09:04:35;;;;;;;11.70;11.40;;;11.00;99.90;;;;;;5017623;27;20461;-71
2023/11/04 09:07:02;;;;;;;12.43;12.13;;;11.10;99.90;;;;;;5016398;28;20458;-74
2023/11/04 09:09:28;;;;;;;12.37;12.07;;;11.20;99.90;;;;;;5020134;28;20459;-71
2023/11/04 09:11:56;;;;;;;12.40;12.10;;;11.20;99.90;;;;;;5019103;28;20465;-71
2023/11/04 09:14:25;;;;;;;12.80;12.40;;;11.20;99.90;;;;;;5011130;28;20473;-72
2023/11/04 09:16:52;;;;;;;12.27;11.97;;;11.20;99.90;;;;;;5024942;28;20489;-73
2023/11/04 09:19:19;;;;;;;12.80;12.40;;;11.30;99.90;;;;;;5018526;28;20777;-71
2023/11/04 09:21:46;;;;;;;12.73;12.33;;;11.40;99.90;;;;;;5020935;28;21030;-72
2023/11/04 09:24:13;;;;;;;13.00;12.60;;;11.50;99.90;;;;;;5010139;27;21037;-73
2023/11/04 09:26:40;;;;;;;13.10;12.70;;;11.70;99.90;;;;;;5021442;28;20671;-72
2023/11/04 09:29:07;;;;;;;13.10;12.70;;;11.70;99.90;;;;;;5019447;28;20472;-71
2023/11/04 09:31:36;;;;;;;12.73;12.33;;;11.80;99.90;;;;;;5015674;28;20552;-74
2023/11/04 09:34:03;;;;;;;13.20;12.80;;;11.80;99.90;;;;;;5024850;28;20466;-71
2023/11/04 09:36:30;;;;;;;12.20;11.90;;;11.90;99.90;;;;;;5023631;28;20466;-71
2023/11/04 09:38:57;;;;;;;12.47;12.17;;;12.00;99.90;;;;;;5017320;28;20471;-74
2023/11/04 09:41:24;;;;;;;13.10;12.70;;;12.10;99.90;;;;;;5020460;28;20461;-71
2023/11/04 09:43:52;;;;;;;12.97;12.57;;;12.10;99.90;;;;;;5019396;27;21301;-72
2023/11/04 09:46:19;;;;;;;12.50;12.20;;;12.30;99.90;;;;;;5024011;28;20552;-71
2023/11/04 09:48:47;;;;;;;12.53;12.23;;;12.40;99.90;;;;;;5018822;28;21035;-72
2023/11/04 09:51:16;;;;;;;12.40;12.10;;;12.60;99.90;;;;;;5012497;28;20467;-72
2023/11/04 09:53:52;;;;;;;12.57;12.27;;;12.70;99.90;;;;;;5019842;28;20492;-71
2023/11/04 09:56:19;;;;;;;13.13;12.73;;;12.70;99.90;;;;;;5015317;28;20467;-71
2023/11/04 09:58:46;;;;;;;13.20;12.80;;;12.80;99.90;;;;;;5023712;28;20474;-73
2023/11/04 10:01:13;;;;;;;13.20;12.80;;;12.70;99.90;;;;;;5000769;28;20840;-74
2023/11/04 10:03:39;;;;;;;13.40;13.00;;;12.80;99.90;;;;;;5010310;28;20493;-71
2023/11/04 10:06:08;;;;;;;12.53;12.23;;;12.90;99.90;;;;;;5014787;28;20462;-69
2023/11/04 10:08:35;;;;;;;13.00;12.60;;;12.70;99.90;;;;;;5016726;28;20465;-70
2023/11/04 10:11:02;;;;;;;12.57;12.27;;;12.70;99.90;;;;;;5048351;28;20489;-71
2023/11/04 10:13:29;;;;;;;13.27;12.87;;;12.80;99.90;;;;;;5010626;28;20515;-71
2023/11/04 10:15:56;;;;;;;13.10;12.70;;;12.80;99.90;;;;;;5009390;28;20920;-71
2023/11/04 10:18:24;;;;;;;13.07;12.67;;;12.80;99.90;;;;;;5015592;28;20560;-75
2023/11/04 10:20:51;;;;;;;12.87;12.47;;;12.80;99.90;;;;;;5015940;28;20554;-73
2023/11/04 10:23:21;;;;;;;12.90;12.50;;;12.60;99.90;;;;;;5010269;28;21021;-72
2023/11/04 10:25:47;;;;;;;12.37;12.07;;;12.60;99.90;;;;;;5009711;28;20470;-70
2023/11/04 10:28:16;;;;;;;12.43;12.13;;;12.60;99.90;;;;;;5008306;28;20472;-69
2023/11/04 10:30:43;;;;;;;12.83;12.43;;;12.70;99.90;;;;;;5011339;28;20463;-70
2023/11/04 10:33:11;;;;;;;12.97;12.57;;;12.60;99.90;;;;;;5012872;28;20508;-70
2023/11/04 10:35:42;;;;;;;12.93;12.53;;;12.50;99.90;;;;;;5001153;28;20471;-70
2023/11/04 10:38:12;;;;;;;13.37;12.97;;;12.60;99.90;;;;;;5006705;28;20506;-70
2023/11/04 10:40:41;;;;;;;13.53;13.13;;;12.50;99.90;;;;;;5010623;28;20838;-70
2023/11/04 10:43:09;;;;;;;13.50;13.10;;;12.50;99.90;;;;;;5011749;28;20490;-70
2023/11/04 10:45:42;;;;;;;13.67;13.27;;;12.40;99.90;;;;;;5004930;28;20517;-70
2023/11/04 10:48:15;;;;;;;13.00;12.60;;;12.40;99.90;;;;;;5007101;28;20564;-73
2023/11/04 10:50:44;;;;;;;13.13;12.73;;;12.50;99.90;;;;;;5011701;28;20470;-71
2023/11/04 10:53:23;;;;;;;13.50;13.10;;;12.40;99.90;;;;;;5012391;28;20463;-72
2023/11/04 10:55:59;;;;;;;13.70;13.30;;;12.30;99.90;;;;;;5011638;27;20464;-70
2023/11/04 10:58:32;;;;;;;17.20;16.50;;;12.20;99.90;;;;;;5012605;28;20511;-70
2023/11/04 11:01:01;;;;;;;25.63;24.03;;;12.00;99.90;;;;;;5013991;28;20461;-71
2023/11/04 11:03:29;;;;;;;28.73;26.73;;;11.70;99.90;;;;;;5005688;28;20515;-68
2023/11/04 11:05:57;;;;;;;30.80;28.50;;;11.40;99.90;;;;;;5013500;28;20474;-69
2023/11/04 11:08:25;;;;;;;29.00;26.90;;;11.10;99.90;;;;;;5013605;27;21168;-69
2023/11/04 11:11:00;;;;;;;26.80;24.90;;;10.80;99.90;;;;;;5008715;27;20836;-69
2023/11/04 11:13:32;;;;;;;25.33;23.63;;;10.60;99.90;;;;;;5008615;28;20473;-68
2023/11/04 11:15:59;;;;;;;24.67;23.07;;;10.40;99.90;;;;;;5018539;27;20556;-70
2023/11/04 11:18:27;;;;;;;23.30;21.80;;;10.20;99.90;;;;;;5011105;27;20458;-71
2023/11/04 11:20:54;;;;;;;22.23;20.83;;;10.10;99.90;;;;;;5008950;28;20807;-69
2023/11/04 11:23:26;;;;;;;21.17;19.87;;;10.00;99.90;;;;;;5013892;28;20913;-70
2023/11/04 11:26:04;;;;;;;21.30;20.00;;;10.00;99.90;;;;;;5012288;28;20506;-70
2023/11/04 11:28:36;;;;;;;21.43;20.13;;;10.00;99.90;;;;;;5009622;27;20814;-70
2023/11/04 11:31:03;;;;;;;20.73;19.53;;;10.00;99.90;;;;;;5008632;28;20788;-72
2023/11/04 11:33:31;;;;;;;20.20;19.10;;;10.10;99.90;;;;;;5012997;27;20474;-71
2023/11/04 11:35:59;;;;;;;19.13;18.13;;;10.10;99.90;;;;;;5007121;28;20461;-70
2023/11/04 11:38:26;;;;;;;18.90;17.90;;;10.00;99.90;;;;;;5010421;28;20466;-71
2023/11/04 11:40:55;;;;;;;19.43;18.43;;;10.10;99.90;;;;;;5015845;27;20550;-71
2023/11/04 11:43:23;;;;;;;19.20;18.20;;;10.20;99.90;;;;;;5022973;27;20493;-71
2023/11/04 11:45:50;;;;;;;18.43;17.43;;;10.10;99.90;;;;;;5015782;27;21095;-70
2023/11/04 11:48:16;;;;;;;18.53;17.57;;;10.00;99.90;;;;;;5014041;27;20485;-69
2023/11/04 11:50:45;;;;;;;18.30;17.40;;;10.00;99.90;;;;;;5016896;27;20489;-70
2023/11/04 11:53:13;;;;;;;17.13;16.33;;;10.00;99.90;;;;;;5016118;27;20476;-70
2023/11/04 11:55:43;;;;;;;16.10;15.40;;;9.90;99.90;;;;;;5011268;27;20462;-69
2023/11/04 11:58:12;;;;;;;16.40;15.70;;;9.90;99.90;;;;;;5009955;27;20980;-71
2023/11/04 12:00:40;;;;;;;16.90;16.10;;;9.90;99.90;;;;;;5014142;27;20522;-70
2023/11/04 12:03:07;;;;;;;16.97;16.17;;;9.90;99.90;;;;;;5023519;27;20496;-70
2023/11/04 12:05:34;;;;;;;17.53;16.73;;;9.90;99.90;;;;;;5014422;28;20458;-69
2023/11/04 12:08:01;;;;;;;17.03;16.23;;;9.90;99.90;;;;;;5014204;27;20473;-70
2023/11/04 12:10:27;;;;;;;17.13;16.33;;;9.80;99.90;;;;;;5016722;27;20473;-70
2023/11/04 12:12:58;;;;;;;16.93;16.20;;;9.70;99.90;;;;;;5021506;27;20461;-69
2023/11/04 12:15:26;;;;;;;18.00;17.20;;;9.60;99.90;;;;;;5014609;27;20463;-72
2023/11/04 12:18:02;;;;;;;17.80;17.00;;;9.70;99.90;;;;;;5010443;27;20474;-73
2023/11/04 12:20:29;;;;;;;17.93;17.13;;;9.70;99.90;;;;;;5015765;27;21020;-71
2023/11/04 12:22:58;;;;;;;17.73;16.83;;;9.70;99.90;;;;;;5019599;27;20531;-71
2023/11/04 12:25:26;;;;;;;17.60;16.80;;;9.70;99.90;;;;;;5006767;28;20462;-72
2023/11/04 12:27:53;;;;;;;17.80;16.90;;;9.70;99.90;;;;;;5017255;28;20786;-71
2023/11/04 12:30:21;;;;;;;17.43;16.53;;;9.70;99.90;;;;;;5014943;28;20830;-71
2023/11/04 12:32:49;;;;;;;16.90;16.00;;;9.70;99.90;;;;;;5021556;27;20637;-70
2023/11/04 12:35:17;;;;;;;16.20;15.40;;;9.60;99.90;;;;;;5005124;28;20474;-72
2023/11/04 12:37:45;;;;;;;15.90;15.10;;;9.70;99.90;;;;;;5014821;27;20465;-71